South Haven Area Regional Airport

KLWA

South Haven, US

Airport Type
small airport

Climate Statistics

Average Temperature
8.3°C
Last 48 hours
Average Wind Speed
3.7 kt
Last 48 hours
Average Visibility
10 km
Last 48 hours
Average Pressure
2991.8 hPa
Last 48 hours

Note: Averages calculated from last 48 hours of METAR observations (50 records).

Historical METAR Observations

Time Code Weather Temp Visibility Ceiling Wind METAR/SPECI
15:35 V ☀️ 13°C 10 SM - 300° 7 kt METAR KLWA 101535Z AUTO 30007KT 270V330 10SM CLR 13/M04 A3010 RMK AO2
15:15 V ☀️ 13°C 10 SM - 330° 7 kt METAR KLWA 101515Z AUTO 33007KT 10SM CLR 13/M01 A3009 RMK AO2
14:55 V ☀️ 13°C 10 SM - 310° 9 kt METAR KLWA 101455Z AUTO 31009KT 10SM CLR 13/M02 A3009 RMK AO2
14:35 V ☀️ 13°C 10 SM - VRB° 4 kt METAR KLWA 101435Z AUTO VRB04KT 10SM CLR 13/M04 A3007 RMK AO2
14:15 V ☀️ 12°C 10 SM - 350° 6 kt METAR KLWA 101415Z AUTO 35006KT 10SM CLR 12/M04 A3007 RMK AO2
13:55 V ☀️ 11°C 10 SM - 150° 3 kt METAR KLWA 101355Z AUTO 15003KT 10SM CLR 11/M02 A3007 RMK AO2
13:35 V ☀️ 11°C 10 SM - 40° 3 kt METAR KLWA 101335Z AUTO 04003KT 10SM CLR 11/M02 A3006 RMK AO2
13:15 V ☀️ 11°C 10 SM - VRB° 4 kt METAR KLWA 101315Z AUTO VRB04KT 10SM CLR 11/M01 A3006 RMK AO2
12:55 V ☀️ 10°C 10 SM - 90° 4 kt METAR KLWA 101255Z AUTO 09004KT 10SM CLR 10/M01 A3005 RMK AO2
12:35 V ☀️ 9°C 10 SM - VRB° 3 kt METAR KLWA 101235Z AUTO VRB03KT 10SM CLR 09/01 A3005 RMK AO2
12:15 V ☀️ 7°C 10 SM - 40° 4 kt METAR KLWA 101215Z AUTO 04004KT 10SM CLR 07/01 A3005 RMK AO2
11:55 V ☀️ 6°C 10 SM - 40° 2 kt METAR KLWA 101155Z AUTO 04002KT 10SM CLR 06/03 A3004 RMK AO2 10076 20015 70000
11:35 V ☀️ 3°C 10 SM - 110° 2 kt METAR KLWA 101135Z AUTO 11002KT 10SM CLR 03/01 A3002 RMK AO2
11:15 V ☀️ 3°C 10 SM - 100° 1 kt METAR KLWA 101115Z AUTO 10001KT 10SM CLR 03/00 A3001 RMK AO2
10:55 V ☀️ 2°C 10 SM - 60° 1 kt METAR KLWA 101055Z AUTO 06001KT 10SM CLR 02/M00 A3000 RMK AO2
10:35 V ☀️ 2°C 10 SM - 40° 1 kt METAR KLWA 101035Z AUTO 04001KT 10SM CLR 02/M00 A3000 RMK AO2
10:15 V ☀️ 2°C 10 SM - 40° 1 kt METAR KLWA 101015Z AUTO 04001KT 10SM CLR 02/00 A2999 RMK AO2
09:55 V ☀️ 3°C 10 SM - 50° 1 kt METAR KLWA 100955Z AUTO 05001KT 10SM CLR 03/00 A2999 RMK AO2
09:35 V ☀️ 2°C 10 SM - 40° 1 kt METAR KLWA 100935Z AUTO 04001KT 10SM CLR 02/M01 A2998 RMK AO2
09:15 V ☀️ 3°C 10 SM - 160° 1 kt METAR KLWA 100915Z AUTO 16001KT 10SM CLR 03/00 A2997 RMK AO2
08:55 V ☀️ 3°C 10 SM - 50° 1 kt METAR KLWA 100855Z AUTO 05001KT 10SM CLR 03/00 A2997 RMK AO2
08:35 V ☀️ 4°C 10 SM - 10° 2 kt METAR KLWA 100835Z AUTO 01002KT 10SM CLR 04/00 A2995 RMK AO2
08:15 V ☀️ 5°C 10 SM - 100° 2 kt METAR KLWA 100815Z AUTO 10002KT 10SM CLR 05/00 A2995 RMK AO2
07:55 V ☀️ 7°C 10 SM - 60° 2 kt METAR KLWA 100755Z AUTO 06002KT 10SM CLR 07/M01 A2994 RMK AO2
07:35 V ☀️ 7°C 10 SM - 80° 4 kt METAR KLWA 100735Z AUTO 08004KT 10SM CLR 07/M00 A2993 RMK AO2
07:15 V ☀️ 7°C 10 SM - 50° 8 kt METAR KLWA 100715Z AUTO 05008KT 10SM CLR 07/01 A2992 RMK AO2
06:55 V ☀️ 7°C 10 SM - 30° 5 kt METAR KLWA 100655Z AUTO 03005KT 10SM CLR 07/02 A2992 RMK AO2
06:35 V ☀️ 6°C 10 SM - 20° 4 kt METAR KLWA 100635Z AUTO 02004KT 10SM CLR 06/02 A2992 RMK AO2
06:15 V ☀️ 5°C 10 SM - 10° 3 kt METAR KLWA 100615Z AUTO 01003KT 10SM CLR 05/03 A2990 RMK AO2
05:55 V ☀️ 5°C 10 SM - 0° 0 kt METAR KLWA 100555Z AUTO 00000KT 10SM CLR 05/03 A2989 RMK AO2 10148 20043
05:35 V ☀️ 4°C 10 SM - VRB° 1 kt METAR KLWA 100535Z AUTO VRB01KT 10SM CLR 04/02 A2988 RMK AO2
05:15 V ☀️ 5°C 10 SM - 0° 0 kt METAR KLWA 100515Z AUTO 00000KT 10SM CLR 05/03 A2986 RMK AO2
04:55 V ☀️ 5°C 10 SM - 320° 2 kt METAR KLWA 100455Z AUTO 32002KT 10SM CLR 05/03 A2986 RMK AO2
04:35 V ☀️ 6°C 10 SM - 200° 2 kt METAR KLWA 100435Z AUTO 20002KT 10SM CLR 06/03 A2985 RMK AO2
04:15 V ☀️ 7°C 10 SM - VRB° 1 kt METAR KLWA 100415Z AUTO VRB01KT 10SM CLR 07/03 A2985 RMK AO2
03:55 V ☀️ 7°C 10 SM - 190° 2 kt METAR KLWA 100355Z AUTO 19002KT 10SM CLR 07/04 A2983 RMK AO2 402120073
03:35 V ☀️ 8°C 10 SM - 180° 2 kt METAR KLWA 100335Z AUTO 18002KT 10SM CLR 08/03 A2982 RMK AO2
03:15 V ☀️ 8°C 10 SM - 190° 2 kt METAR KLWA 100315Z AUTO 19002KT 10SM CLR 08/03 A2982 RMK AO2
02:55 V ☀️ 9°C 10 SM - 0° 0 kt METAR KLWA 100255Z AUTO 00000KT 10SM CLR 09/04 A2981 RMK AO2
02:35 V ☀️ 11°C 10 SM - 360° 1 kt METAR KLWA 100235Z AUTO 36001KT 10SM CLR 11/02 A2980 RMK AO2
02:15 V ☀️ 12°C 10 SM - 10° 2 kt METAR KLWA 100215Z AUTO 01002KT 10SM CLR 12/02 A2979 RMK AO2
01:55 V ☀️ 13°C 10 SM - 10° 4 kt METAR KLWA 100155Z AUTO 01004KT 10SM CLR 13/02 A2978 RMK AO2
01:35 V ☀️ 13°C 10 SM - 360° 5 kt METAR KLWA 100135Z AUTO 36005KT 10SM CLR 13/02 A2977 RMK AO2
01:15 V ☀️ 14°C 10 SM - 360° 7 kt METAR KLWA 100115Z AUTO 36007KT 10SM CLR 14/01 A2976 RMK AO2
00:55 V ☀️ 14°C 10 SM - 360° 8 kt METAR KLWA 100055Z AUTO 36008KT 10SM CLR 14/02 A2975 RMK AO2
00:35 V ☀️ 14°C 10 SM - 360° 8 kt METAR KLWA 100035Z AUTO 36008G14KT 10SM CLR 14/01 A2974 RMK AO2
00:15 V ☀️ 14°C 10 SM - 10° 9 kt METAR KLWA 100015Z AUTO 01009G14KT 10SM CLR 14/M01 A2973 RMK AO2
23:55 V ☀️ 15°C 10 SM - 350° 11 kt METAR KLWA 092355Z AUTO 35011KT 10SM CLR 15/M00 A2972 RMK AO2 10212 20137
23:35 V ☀️ 15°C 10 SM - 360° 11 kt METAR KLWA 092335Z AUTO 36011KT 10SM CLR 15/01 A2971 RMK AO2
23:15 V ☀️ 14°C 10 SM - 350° 9 kt METAR KLWA 092315Z AUTO 35009G17KT 10SM CLR 14/02 A2970 RMK AO2 PRESRR